sensor_id;sensor_type;location;lat;lon;timestamp;temperature;humidity
10538;DHT22;5317;49.048;8.468;2023-05-07T00:02:01;19.80;71.70
10538;DHT22;5317;49.048;8.468;2023-05-07T00:04:28;19.80;71.50
10538;DHT22;5317;49.048;8.468;2023-05-07T00:07:01;19.80;71.50
10538;DHT22;5317;49.048;8.468;2023-05-07T00:09:28;19.80;71.70
10538;DHT22;5317;49.048;8.468;2023-05-07T00:11:55;19.80;72.10
10538;DHT22;5317;49.048;8.468;2023-05-07T00:14:22;19.80;71.90
10538;DHT22;5317;49.048;8.468;2023-05-07T00:16:50;19.70;72.00
10538;DHT22;5317;49.048;8.468;2023-05-07T00:19:17;19.70;72.10
10538;DHT22;5317;49.048;8.468;2023-05-07T00:21:44;19.60;72.00
10538;DHT22;5317;49.048;8.468;2023-05-07T00:24:10;19.60;72.30
10538;DHT22;5317;49.048;8.468;2023-05-07T00:26:37;19.60;72.30
10538;DHT22;5317;49.048;8.468;2023-05-07T00:29:04;19.50;72.20
10538;DHT22;5317;49.048;8.468;2023-05-07T00:31:31;19.50;72.20
10538;DHT22;5317;49.048;8.468;2023-05-07T00:33:59;19.50;72.20
10538;DHT22;5317;49.048;8.468;2023-05-07T00:36:26;19.40;72.20
10538;DHT22;5317;49.048;8.468;2023-05-07T00:38:54;19.40;72.40
10538;DHT22;5317;49.048;8.468;2023-05-07T00:41:21;19.30;72.50
10538;DHT22;5317;49.048;8.468;2023-05-07T00:43:48;19.30;72.60
10538;DHT22;5317;49.048;8.468;2023-05-07T00:46:17;19.30;72.70
10538;DHT22;5317;49.048;8.468;2023-05-07T00:48:44;19.20;72.80
10538;DHT22;5317;49.048;8.468;2023-05-07T00:51:13;19.20;72.80
10538;DHT22;5317;49.048;8.468;2023-05-07T00:53:40;19.20;72.80
10538;DHT22;5317;49.048;8.468;2023-05-07T00:56:07;19.20;72.60
10538;DHT22;5317;49.048;8.468;2023-05-07T00:58:34;19.20;72.50
10538;DHT22;5317;49.048;8.468;2023-05-07T01:01:02;19.20;72.50
10538;DHT22;5317;49.048;8.468;2023-05-07T01:03:29;19.10;72.50
10538;DHT22;5317;49.048;8.468;2023-05-07T01:05:57;19.10;72.60
10538;DHT22;5317;49.048;8.468;2023-05-07T01:08:26;19.10;72.60
10538;DHT22;5317;49.048;8.468;2023-05-07T01:11:04;19.10;72.60
10538;DHT22;5317;49.048;8.468;2023-05-07T01:13:31;19.00;72.60
10538;DHT22;5317;49.048;8.468;2023-05-07T01:15:58;19.00;72.40
10538;DHT22;5317;49.048;8.468;2023-05-07T01:18:25;19.00;72.50
10538;DHT22;5317;49.048;8.468;2023-05-07T01:21:11;19.00;72.80
10538;DHT22;5317;49.048;8.468;2023-05-07T01:23:39;19.00;73.30
10538;DHT22;5317;49.048;8.468;2023-05-07T01:26:07;19.00;73.00
10538;DHT22;5317;49.048;8.468;2023-05-07T01:28:34;19.00;73.10
10538;DHT22;5317;49.048;8.468;2023-05-07T01:31:02;19.00;73.20
10538;DHT22;5317;49.048;8.468;2023-05-07T01:33:32;18.90;73.10
10538;DHT22;5317;49.048;8.468;2023-05-07T01:36:00;18.90;73.10
10538;DHT22;5317;49.048;8.468;2023-05-07T01:38:29;18.90;73.10
10538;DHT22;5317;49.048;8.468;2023-05-07T01:41:01;18.90;73.20
10538;DHT22;5317;49.048;8.468;2023-05-07T01:43:28;18.80;73.30
10538;DHT22;5317;49.048;8.468;2023-05-07T01:45:57;18.80;73.40
10538;DHT22;5317;49.048;8.468;2023-05-07T01:48:25;18.80;73.50
10538;DHT22;5317;49.048;8.468;2023-05-07T01:50:53;18.80;73.60
10538;DHT22;5317;49.048;8.468;2023-05-07T01:53:20;18.80;73.50
10538;DHT22;5317;49.048;8.468;2023-05-07T01:55:47;18.70;73.50
10538;DHT22;5317;49.048;8.468;2023-05-07T01:58:15;18.70;73.50
10538;DHT22;5317;49.048;8.468;2023-05-07T02:00:42;18.70;73.80
10538;DHT22;5317;49.048;8.468;2023-05-07T02:03:09;18.70;73.70
10538;DHT22;5317;49.048;8.468;2023-05-07T02:05:36;18.60;73.60
10538;DHT22;5317;49.048;8.468;2023-05-07T02:08:03;18.60;73.70
10538;DHT22;5317;49.048;8.468;2023-05-07T02:10:30;18.60;73.90
10538;DHT22;5317;49.048;8.468;2023-05-07T02:12:57;18.60;74.00
10538;DHT22;5317;49.048;8.468;2023-05-07T02:15:26;18.60;74.00
10538;DHT22;5317;49.048;8.468;2023-05-07T02:18:00;18.60;74.00
10538;DHT22;5317;49.048;8.468;2023-05-07T02:20:27;18.60;74.20
10538;DHT22;5317;49.048;8.468;2023-05-07T02:22:54;18.50;74.00
10538;DHT22;5317;49.048;8.468;2023-05-07T02:25:21;18.50;73.90
10538;DHT22;5317;49.048;8.468;2023-05-07T02:27:48;18.50;73.90
10538;DHT22;5317;49.048;8.468;2023-05-07T02:30:15;18.50;73.90
10538;DHT22;5317;49.048;8.468;2023-05-07T02:32:43;18.50;73.90
10538;DHT22;5317;49.048;8.468;2023-05-07T02:35:10;18.50;74.00
10538;DHT22;5317;49.048;8.468;2023-05-07T02:37:37;18.50;73.90
10538;DHT22;5317;49.048;8.468;2023-05-07T02:40:05;18.40;74.00
10538;DHT22;5317;49.048;8.468;2023-05-07T02:42:32;18.50;74.30
10538;DHT22;5317;49.048;8.468;2023-05-07T02:44:59;18.40;74.40
10538;DHT22;5317;49.048;8.468;2023-05-07T02:47:26;18.40;74.50
10538;DHT22;5317;49.048;8.468;2023-05-07T02:49:55;18.40;74.50
10538;DHT22;5317;49.048;8.468;2023-05-07T02:52:22;18.40;74.60
10538;DHT22;5317;49.048;8.468;2023-05-07T02:54:49;18.50;74.60
10538;DHT22;5317;49.048;8.468;2023-05-07T02:57:16;18.40;74.40
10538;DHT22;5317;49.048;8.468;2023-05-07T02:59:43;18.40;74.40
10538;DHT22;5317;49.048;8.468;2023-05-07T03:02:10;18.40;74.50
10538;DHT22;5317;49.048;8.468;2023-05-07T03:04:37;18.40;74.50
10538;DHT22;5317;49.048;8.468;2023-05-07T03:07:05;18.40;74.60
10538;DHT22;5317;49.048;8.468;2023-05-07T03:09:32;18.30;74.40
10538;DHT22;5317;49.048;8.468;2023-05-07T03:11:59;18.30;74.40
10538;DHT22;5317;49.048;8.468;2023-05-07T03:14:27;18.30;74.40
10538;DHT22;5317;49.048;8.468;2023-05-07T03:16:54;18.30;74.40
10538;DHT22;5317;49.048;8.468;2023-05-07T03:19:20;18.30;74.50
10538;DHT22;5317;49.048;8.468;2023-05-07T03:21:47;18.20;74.30
10538;DHT22;5317;49.048;8.468;2023-05-07T03:24:16;18.20;74.50
10538;DHT22;5317;49.048;8.468;2023-05-07T03:26:42;18.20;74.50
10538;DHT22;5317;49.048;8.468;2023-05-07T03:29:09;18.20;74.70
10538;DHT22;5317;49.048;8.468;2023-05-07T03:31:36;18.20;74.70
10538;DHT22;5317;49.048;8.468;2023-05-07T03:34:03;18.20;74.60
10538;DHT22;5317;49.048;8.468;2023-05-07T03:36:30;18.20;74.50
10538;DHT22;5317;49.048;8.468;2023-05-07T03:38:57;18.20;74.40
10538;DHT22;5317;49.048;8.468;2023-05-07T03:41:25;18.10;74.20
10538;DHT22;5317;49.048;8.468;2023-05-07T03:43:52;18.20;74.40
10538;DHT22;5317;49.048;8.468;2023-05-07T03:46:19;18.10;74.20
10538;DHT22;5317;49.048;8.468;2023-05-07T03:48:46;18.10;74.30
10538;DHT22;5317;49.048;8.468;2023-05-07T03:51:13;18.10;74.50
10538;DHT22;5317;49.048;8.468;2023-05-07T03:53:40;18.00;74.50
10538;DHT22;5317;49.048;8.468;2023-05-07T03:56:07;18.00;74.60
10538;DHT22;5317;49.048;8.468;2023-05-07T03:58:35;18.00;74.60
10538;DHT22;5317;49.048;8.468;2023-05-07T04:01:02;17.90;74.50
10538;DHT22;5317;49.048;8.468;2023-05-07T04:03:29;17.90;74.60
10538;DHT22;5317;49.048;8.468;2023-05-07T04:05:56;17.90;74.70
10538;DHT22;5317;49.048;8.468;2023-05-07T04:08:23;17.90;74.80
10538;DHT22;5317;49.048;8.468;2023-05-07T04:10:54;17.90;75.00
10538;DHT22;5317;49.048;8.468;2023-05-07T04:13:21;17.90;75.30
10538;DHT22;5317;49.048;8.468;2023-05-07T04:15:50;17.90;75.10
10538;DHT22;5317;49.048;8.468;2023-05-07T04:18:17;17.90;75.30
10538;DHT22;5317;49.048;8.468;2023-05-07T04:20:45;17.90;75.20
10538;DHT22;5317;49.048;8.468;2023-05-07T04:23:12;17.90;75.30
10538;DHT22;5317;49.048;8.468;2023-05-07T04:25:39;17.90;75.40
10538;DHT22;5317;49.048;8.468;2023-05-07T04:28:06;17.90;75.40
10538;DHT22;5317;49.048;8.468;2023-05-07T04:30:33;17.90;75.40
10538;DHT22;5317;49.048;8.468;2023-05-07T04:33:01;17.90;75.40
10538;DHT22;5317;49.048;8.468;2023-05-07T04:35:28;17.90;75.50
10538;DHT22;5317;49.048;8.468;2023-05-07T04:37:55;17.90;75.50
10538;DHT22;5317;49.048;8.468;2023-05-07T04:40:21;17.90;75.50
10538;DHT22;5317;49.048;8.468;2023-05-07T04:42:48;17.90;75.70
10538;DHT22;5317;49.048;8.468;2023-05-07T04:45:15;17.90;75.60
10538;DHT22;5317;49.048;8.468;2023-05-07T04:47:42;17.90;76.40
10538;DHT22;5317;49.048;8.468;2023-05-07T04:50:11;18.00;75.80
10538;DHT22;5317;49.048;8.468;2023-05-07T04:52:37;18.00;75.60
10538;DHT22;5317;49.048;8.468;2023-05-07T04:55:05;18.00;75.50
10538;DHT22;5317;49.048;8.468;2023-05-07T04:57:32;18.10;75.70
10538;DHT22;5317;49.048;8.468;2023-05-07T04:59:58;18.10;75.80
10538;DHT22;5317;49.048;8.468;2023-05-07T05:02:25;18.10;75.90
10538;DHT22;5317;49.048;8.468;2023-05-07T05:04:52;18.10;75.80
10538;DHT22;5317;49.048;8.468;2023-05-07T05:07:20;18.20;76.00
10538;DHT22;5317;49.048;8.468;2023-05-07T05:09:47;18.20;76.00
10538;DHT22;5317;49.048;8.468;2023-05-07T05:12:14;18.20;76.70
10538;DHT22;5317;49.048;8.468;2023-05-07T05:14:41;18.30;76.10
10538;DHT22;5317;49.048;8.468;2023-05-07T05:17:08;18.30;76.20
10538;DHT22;5317;49.048;8.468;2023-05-07T05:19:35;18.30;76.30
10538;DHT22;5317;49.048;8.468;2023-05-07T05:22:02;18.40;76.50
10538;DHT22;5317;49.048;8.468;2023-05-07T05:24:30;18.40;76.60
10538;DHT22;5317;49.048;8.468;2023-05-07T05:26:57;18.40;76.50
10538;DHT22;5317;49.048;8.468;2023-05-07T05:29:25;18.50;76.40
10538;DHT22;5317;49.048;8.468;2023-05-07T05:31:52;18.50;76.40
10538;DHT22;5317;49.048;8.468;2023-05-07T05:34:19;18.60;76.60
10538;DHT22;5317;49.048;8.468;2023-05-07T05:36:47;18.60;76.80
10538;DHT22;5317;49.048;8.468;2023-05-07T05:39:14;18.70;76.90
10538;DHT22;5317;49.048;8.468;2023-05-07T05:41:42;18.80;76.90
10538;DHT22;5317;49.048;8.468;2023-05-07T05:44:09;18.90;76.80
10538;DHT22;5317;49.048;8.468;2023-05-07T05:46:36;18.90;76.80
10538;DHT22;5317;49.048;8.468;2023-05-07T05:49:03;19.00;76.90
10538;DHT22;5317;49.048;8.468;2023-05-07T05:51:30;19.10;76.80
10538;DHT22;5317;49.048;8.468;2023-05-07T05:53:57;19.20;76.90
10538;DHT22;5317;49.048;8.468;2023-05-07T05:56:24;19.30;76.90
10538;DHT22;5317;49.048;8.468;2023-05-07T05:58:52;19.40;76.90
10538;DHT22;5317;49.048;8.468;2023-05-07T06:01:19;19.40;76.80
10538;DHT22;5317;49.048;8.468;2023-05-07T06:03:46;19.50;76.90
10538;DHT22;5317;49.048;8.468;2023-05-07T06:06:13;19.60;77.00
10538;DHT22;5317;49.048;8.468;2023-05-07T06:08:41;19.60;76.30
10538;DHT22;5317;49.048;8.468;2023-05-07T06:11:08;19.70;75.10
10538;DHT22;5317;49.048;8.468;2023-05-07T06:13:34;19.80;75.70
10538;DHT22;5317;49.048;8.468;2023-05-07T06:16:03;19.80;75.80
10538;DHT22;5317;49.048;8.468;2023-05-07T06:18:30;19.90;75.70
10538;DHT22;5317;49.048;8.468;2023-05-07T06:21:06;20.00;75.40
10538;DHT22;5317;49.048;8.468;2023-05-07T06:23:33;20.10;74.80
10538;DHT22;5317;49.048;8.468;2023-05-07T06:26:00;20.30;74.40
10538;DHT22;5317;49.048;8.468;2023-05-07T06:28:27;20.30;73.90
10538;DHT22;5317;49.048;8.468;2023-05-07T06:31:06;20.40;73.60
10538;DHT22;5317;49.048;8.468;2023-05-07T06:33:38;20.50;72.70
10538;DHT22;5317;49.048;8.468;2023-05-07T06:36:06;20.60;72.50
10538;DHT22;5317;49.048;8.468;2023-05-07T06:38:33;20.60;72.20
10538;DHT22;5317;49.048;8.468;2023-05-07T06:41:00;20.70;71.50
10538;DHT22;5317;49.048;8.468;2023-05-07T06:43:27;20.70;70.60
10538;DHT22;5317;49.048;8.468;2023-05-07T06:46:10;20.80;70.10
10538;DHT22;5317;49.048;8.468;2023-05-07T06:48:38;20.90;70.10
10538;DHT22;5317;49.048;8.468;2023-05-07T06:51:05;20.90;69.80
10538;DHT22;5317;49.048;8.468;2023-05-07T06:53:32;21.00;69.60
10538;DHT22;5317;49.048;8.468;2023-05-07T06:56:12;21.10;69.50
10538;DHT22;5317;49.048;8.468;2023-05-07T06:58:39;21.10;69.50
10538;DHT22;5317;49.048;8.468;2023-05-07T07:01:06;21.20;69.70
10538;DHT22;5317;49.048;8.468;2023-05-07T07:03:33;21.30;69.80
10538;DHT22;5317;49.048;8.468;2023-05-07T07:06:01;21.40;69.70
10538;DHT22;5317;49.048;8.468;2023-05-07T07:08:28;21.50;69.50
10538;DHT22;5317;49.048;8.468;2023-05-07T07:10:55;21.60;69.80
10538;DHT22;5317;49.048;8.468;2023-05-07T07:13:22;21.70;69.50
10538;DHT22;5317;49.048;8.468;2023-05-07T07:15:51;21.70;69.30
10538;DHT22;5317;49.048;8.468;2023-05-07T07:18:18;21.90;69.50
10538;DHT22;5317;49.048;8.468;2023-05-07T07:20:45;21.90;69.50
10538;DHT22;5317;49.048;8.468;2023-05-07T07:23:13;22.10;69.40
10538;DHT22;5317;49.048;8.468;2023-05-07T07:25:40;22.10;68.70
10538;DHT22;5317;49.048;8.468;2023-05-07T07:28:07;22.20;68.30
10538;DHT22;5317;49.048;8.468;2023-05-07T07:30:34;22.30;68.10
10538;DHT22;5317;49.048;8.468;2023-05-07T07:33:00;22.40;67.70
10538;DHT22;5317;49.048;8.468;2023-05-07T07:35:28;22.40;67.70
10538;DHT22;5317;49.048;8.468;2023-05-07T07:37:55;22.50;67.10
10538;DHT22;5317;49.048;8.468;2023-05-07T07:40:24;22.60;67.40
10538;DHT22;5317;49.048;8.468;2023-05-07T07:42:51;22.60;67.30
10538;DHT22;5317;49.048;8.468;2023-05-07T07:45:18;22.70;67.40
10538;DHT22;5317;49.048;8.468;2023-05-07T07:47:45;22.80;67.70
10538;DHT22;5317;49.048;8.468;2023-05-07T07:50:12;22.90;67.50
10538;DHT22;5317;49.048;8.468;2023-05-07T07:52:39;22.90;67.20
10538;DHT22;5317;49.048;8.468;2023-05-07T07:55:07;23.00;66.40
10538;DHT22;5317;49.048;8.468;2023-05-07T07:57:35;23.10;65.50
10538;DHT22;5317;49.048;8.468;2023-05-07T08:00:03;23.20;65.50
10538;DHT22;5317;49.048;8.468;2023-05-07T08:02:32;23.30;65.10
10538;DHT22;5317;49.048;8.468;2023-05-07T08:04:59;23.40;64.10
10538;DHT22;5317;49.048;8.468;2023-05-07T08:07:26;23.40;62.90
10538;DHT22;5317;49.048;8.468;2023-05-07T08:09:53;23.50;63.00
10538;DHT22;5317;49.048;8.468;2023-05-07T08:12:20;23.50;63.00
10538;DHT22;5317;49.048;8.468;2023-05-07T08:14:48;23.50;62.90
10538;DHT22;5317;49.048;8.468;2023-05-07T08:17:15;23.60;62.90
10538;DHT22;5317;49.048;8.468;2023-05-07T08:19:42;23.70;62.50
10538;DHT22;5317;49.048;8.468;2023-05-07T08:22:09;23.80;62.70
10538;DHT22;5317;49.048;8.468;2023-05-07T08:24:36;23.80;62.40
10538;DHT22;5317;49.048;8.468;2023-05-07T08:27:03;23.80;62.60
10538;DHT22;5317;49.048;8.468;2023-05-07T08:29:30;24.00;63.20
10538;DHT22;5317;49.048;8.468;2023-05-07T08:31:58;24.00;62.00
10538;DHT22;5317;49.048;8.468;2023-05-07T08:34:25;24.00;62.00
10538;DHT22;5317;49.048;8.468;2023-05-07T08:36:52;24.10;62.40
10538;DHT22;5317;49.048;8.468;2023-05-07T08:39:19;24.10;63.30
10538;DHT22;5317;49.048;8.468;2023-05-07T08:41:46;24.20;62.00
10538;DHT22;5317;49.048;8.468;2023-05-07T08:44:14;24.10;61.90
10538;DHT22;5317;49.048;8.468;2023-05-07T08:46:45;24.10;62.40
10538;DHT22;5317;49.048;8.468;2023-05-07T08:49:15;24.20;61.90
10538;DHT22;5317;49.048;8.468;2023-05-07T08:51:42;24.20;61.20
10538;DHT22;5317;49.048;8.468;2023-05-07T08:54:10;24.20;61.40
10538;DHT22;5317;49.048;8.468;2023-05-07T08:56:37;24.30;61.60
10538;DHT22;5317;49.048;8.468;2023-05-07T08:59:05;24.40;62.00
10538;DHT22;5317;49.048;8.468;2023-05-07T09:01:32;24.50;61.90
10538;DHT22;5317;49.048;8.468;2023-05-07T09:04:01;24.60;61.80
10538;DHT22;5317;49.048;8.468;2023-05-07T09:06:29;24.70;61.70
10538;DHT22;5317;49.048;8.468;2023-05-07T09:08:56;24.80;60.90
10538;DHT22;5317;49.048;8.468;2023-05-07T09:11:26;24.90;60.80
10538;DHT22;5317;49.048;8.468;2023-05-07T09:13:54;25.00;60.10
10538;DHT22;5317;49.048;8.468;2023-05-07T09:16:24;25.10;59.80
10538;DHT22;5317;49.048;8.468;2023-05-07T09:18:52;25.10;59.70
10538;DHT22;5317;49.048;8.468;2023-05-07T09:21:20;25.30;59.50
10538;DHT22;5317;49.048;8.468;2023-05-07T09:23:50;25.40;60.00
10538;DHT22;5317;49.048;8.468;2023-05-07T09:26:17;25.60;60.10
10538;DHT22;5317;49.048;8.468;2023-05-07T09:28:44;25.70;60.10
10538;DHT22;5317;49.048;8.468;2023-05-07T09:31:12;25.90;59.80
10538;DHT22;5317;49.048;8.468;2023-05-07T09:33:39;26.10;59.40
10538;DHT22;5317;49.048;8.468;2023-05-07T09:36:07;26.20;59.30
10538;DHT22;5317;49.048;8.468;2023-05-07T09:38:36;26.40;59.70
10538;DHT22;5317;49.048;8.468;2023-05-07T09:41:05;26.50;59.60
10538;DHT22;5317;49.048;8.468;2023-05-07T09:43:32;26.70;58.40
10538;DHT22;5317;49.048;8.468;2023-05-07T09:46:03;26.70;58.40
10538;DHT22;5317;49.048;8.468;2023-05-07T09:48:30;26.90;58.30
10538;DHT22;5317;49.048;8.468;2023-05-07T09:51:01;27.00;57.60
10538;DHT22;5317;49.048;8.468;2023-05-07T09:53:29;27.10;57.10
10538;DHT22;5317;49.048;8.468;2023-05-07T09:55:57;27.10;56.50
10538;DHT22;5317;49.048;8.468;2023-05-07T09:58:27;27.20;56.60
10538;DHT22;5317;49.048;8.468;2023-05-07T10:00:56;27.30;56.10
10538;DHT22;5317;49.048;8.468;2023-05-07T10:03:24;27.40;55.30
10538;DHT22;5317;49.048;8.468;2023-05-07T10:06:04;27.30;55.50
10538;DHT22;5317;49.048;8.468;2023-05-07T10:08:31;27.40;55.80
10538;DHT22;5317;49.048;8.468;2023-05-07T10:10:59;27.50;55.80
10538;DHT22;5317;49.048;8.468;2023-05-07T10:13:28;27.60;55.60
10538;DHT22;5317;49.048;8.468;2023-05-07T10:15:55;27.70;56.10
10538;DHT22;5317;49.048;8.468;2023-05-07T10:18:23;27.80;56.20
10538;DHT22;5317;49.048;8.468;2023-05-07T10:21:07;27.90;56.10
10538;DHT22;5317;49.048;8.468;2023-05-07T10:23:34;28.10;56.00
10538;DHT22;5317;49.048;8.468;2023-05-07T10:26:04;28.20;55.10
10538;DHT22;5317;49.048;8.468;2023-05-07T10:28:37;28.30;54.20
10538;DHT22;5317;49.048;8.468;2023-05-07T10:31:18;28.40;54.10
10538;DHT22;5317;49.048;8.468;2023-05-07T10:33:51;28.40;53.30
10538;DHT22;5317;49.048;8.468;2023-05-07T10:36:19;28.40;52.80
10538;DHT22;5317;49.048;8.468;2023-05-07T10:38:48;28.30;52.80
10538;DHT22;5317;49.048;8.468;2023-05-07T10:41:15;28.30;53.60
10538;DHT22;5317;49.048;8.468;2023-05-07T10:43:44;28.40;54.00
10538;DHT22;5317;49.048;8.468;2023-05-07T10:46:15;28.50;52.80
10538;DHT22;5317;49.048;8.468;2023-05-07T10:49:10;28.60;52.60
10538;DHT22;5317;49.048;8.468;2023-05-07T10:51:41;28.70;54.20
10538;DHT22;5317;49.048;8.468;2023-05-07T10:54:21;28.80;53.90
10538;DHT22;5317;49.048;8.468;2023-05-07T10:56:49;28.90;51.30
10538;DHT22;5317;49.048;8.468;2023-05-07T10:59:36;28.90;51.70
10538;DHT22;5317;49.048;8.468;2023-05-07T11:02:09;28.70;50.60
10538;DHT22;5317;49.048;8.468;2023-05-07T11:04:39;28.70;51.40
10538;DHT22;5317;49.048;8.468;2023-05-07T11:07:24;28.70;51.30
10538;DHT22;5317;49.048;8.468;2023-05-07T11:09:59;28.80;52.00
10538;DHT22;5317;49.048;8.468;2023-05-07T11:15:42;29.30;52.70
10538;DHT22;5317;49.048;8.468;2023-05-07T11:18:23;29.40;49.80
10538;DHT22;5317;49.048;8.468;2023-05-07T11:20:55;29.20;49.80
10538;DHT22;5317;49.048;8.468;2023-05-07T11:23:57;29.20;51.10
10538;DHT22;5317;49.048;8.468;2023-05-07T11:26:25;29.30;49.90
10538;DHT22;5317;49.048;8.468;2023-05-07T11:28:53;29.50;50.70
10538;DHT22;5317;49.048;8.468;2023-05-07T11:31:23;29.70;50.20
10538;DHT22;5317;49.048;8.468;2023-05-07T11:33:52;29.90;50.80
10538;DHT22;5317;49.048;8.468;2023-05-07T11:36:19;30.10;50.80
10538;DHT22;5317;49.048;8.468;2023-05-07T11:38:46;30.20;50.80
10538;DHT22;5317;49.048;8.468;2023-05-07T11:41:13;30.30;49.90
10538;DHT22;5317;49.048;8.468;2023-05-07T11:43:54;30.40;48.90
10538;DHT22;5317;49.048;8.468;2023-05-07T11:46:23;30.40;48.40
10538;DHT22;5317;49.048;8.468;2023-05-07T11:48:50;30.50;49.40
10538;DHT22;5317;49.048;8.468;2023-05-07T11:51:20;30.50;49.00
10538;DHT22;5317;49.048;8.468;2023-05-07T11:53:48;30.40;49.00
10538;DHT22;5317;49.048;8.468;2023-05-07T11:56:17;30.60;49.10
10538;DHT22;5317;49.048;8.468;2023-05-07T11:58:46;30.70;49.30
10538;DHT22;5317;49.048;8.468;2023-05-07T12:01:13;30.80;48.90
10538;DHT22;5317;49.048;8.468;2023-05-07T12:03:43;30.90;50.40
10538;DHT22;5317;49.048;8.468;2023-05-07T12:06:12;30.90;49.60
10538;DHT22;5317;49.048;8.468;2023-05-07T12:08:40;31.00;50.00
10538;DHT22;5317;49.048;8.468;2023-05-07T12:11:15;31.00;49.10
10538;DHT22;5317;49.048;8.468;2023-05-07T12:13:43;30.90;48.20
10538;DHT22;5317;49.048;8.468;2023-05-07T12:16:11;30.80;48.40
10538;DHT22;5317;49.048;8.468;2023-05-07T12:18:38;30.80;47.80
10538;DHT22;5317;49.048;8.468;2023-05-07T12:21:07;30.80;47.20
10538;DHT22;5317;49.048;8.468;2023-05-07T12:23:35;30.60;48.00
10538;DHT22;5317;49.048;8.468;2023-05-07T12:26:03;30.60;48.00
10538;DHT22;5317;49.048;8.468;2023-05-07T12:28:32;30.80;49.10
10538;DHT22;5317;49.048;8.468;2023-05-07T12:31:04;30.90;47.30
10538;DHT22;5317;49.048;8.468;2023-05-07T12:33:32;30.80;46.60
10538;DHT22;5317;49.048;8.468;2023-05-07T12:36:03;30.50;47.30
10538;DHT22;5317;49.048;8.468;2023-05-07T12:38:35;30.50;47.40
10538;DHT22;5317;49.048;8.468;2023-05-07T12:41:03;30.50;47.40
10538;DHT22;5317;49.048;8.468;2023-05-07T12:43:30;30.60;47.00
10538;DHT22;5317;49.048;8.468;2023-05-07T12:46:00;30.50;47.10
10538;DHT22;5317;49.048;8.468;2023-05-07T12:48:28;30.60;47.80
10538;DHT22;5317;49.048;8.468;2023-05-07T12:50:56;30.70;48.10
10538;DHT22;5317;49.048;8.468;2023-05-07T12:53:25;30.70;48.10
10538;DHT22;5317;49.048;8.468;2023-05-07T12:55:55;30.70;47.40
10538;DHT22;5317;49.048;8.468;2023-05-07T12:58:25;30.50;47.00
10538;DHT22;5317;49.048;8.468;2023-05-07T13:00:52;30.40;48.60
10538;DHT22;5317;49.048;8.468;2023-05-07T13:03:24;30.40;47.60
10538;DHT22;5317;49.048;8.468;2023-05-07T13:05:51;30.40;47.80
10538;DHT22;5317;49.048;8.468;2023-05-07T13:08:26;30.50;47.90
10538;DHT22;5317;49.048;8.468;2023-05-07T13:11:08;30.50;47.80
10538;DHT22;5317;49.048;8.468;2023-05-07T13:13:37;30.40;46.40
10538;DHT22;5317;49.048;8.468;2023-05-07T13:16:05;30.10;46.00
10538;DHT22;5317;49.048;8.468;2023-05-07T13:18:34;29.70;46.50
10538;DHT22;5317;49.048;8.468;2023-05-07T13:21:07;29.80;47.00
10538;DHT22;5317;49.048;8.468;2023-05-07T13:23:34;29.70;46.50
10538;DHT22;5317;49.048;8.468;2023-05-07T13:26:01;29.60;46.90
10538;DHT22;5317;49.048;8.468;2023-05-07T13:28:29;29.50;47.00
10538;DHT22;5317;49.048;8.468;2023-05-07T13:31:14;29.40;47.30
10538;DHT22;5317;49.048;8.468;2023-05-07T13:33:41;29.50;47.70
10538;DHT22;5317;49.048;8.468;2023-05-07T13:36:08;29.60;47.30
10538;DHT22;5317;49.048;8.468;2023-05-07T13:38:35;29.60;46.70
10538;DHT22;5317;49.048;8.468;2023-05-07T13:41:02;29.60;46.80
10538;DHT22;5317;49.048;8.468;2023-05-07T13:43:30;29.70;45.70
10538;DHT22;5317;49.048;8.468;2023-05-07T13:46:11;29.80;45.60
10538;DHT22;5317;49.048;8.468;2023-05-07T13:48:38;29.80;46.10
10538;DHT22;5317;49.048;8.468;2023-05-07T13:51:05;29.90;45.20
10538;DHT22;5317;49.048;8.468;2023-05-07T13:53:32;29.80;45.50
10538;DHT22;5317;49.048;8.468;2023-05-07T13:55:59;29.70;45.70
10538;DHT22;5317;49.048;8.468;2023-05-07T13:58:25;29.50;45.70
10538;DHT22;5317;49.048;8.468;2023-05-07T14:00:54;29.40;46.00
10538;DHT22;5317;49.048;8.468;2023-05-07T14:03:20;29.10;47.40
10538;DHT22;5317;49.048;8.468;2023-05-07T14:05:47;28.60;45.70
10538;DHT22;5317;49.048;8.468;2023-05-07T14:08:15;28.20;46.50
10538;DHT22;5317;49.048;8.468;2023-05-07T14:10:45;27.80;46.50
10538;DHT22;5317;49.048;8.468;2023-05-07T14:13:12;27.50;47.30
10538;DHT22;5317;49.048;8.468;2023-05-07T14:15:39;27.30;47.60
10538;DHT22;5317;49.048;8.468;2023-05-07T14:18:09;27.20;47.80
10538;DHT22;5317;49.048;8.468;2023-05-07T14:20:35;26.90;48.30
10538;DHT22;5317;49.048;8.468;2023-05-07T14:23:03;26.70;48.80
10538;DHT22;5317;49.048;8.468;2023-05-07T14:25:30;26.60;49.30
10538;DHT22;5317;49.048;8.468;2023-05-07T14:27:56;26.50;49.40
10538;DHT22;5317;49.048;8.468;2023-05-07T14:30:23;26.30;48.90
10538;DHT22;5317;49.048;8.468;2023-05-07T14:32:50;26.20;49.30
10538;DHT22;5317;49.048;8.468;2023-05-07T14:35:19;26.20;49.40
10538;DHT22;5317;49.048;8.468;2023-05-07T14:37:46;26.30;49.70
10538;DHT22;5317;49.048;8.468;2023-05-07T14:40:13;26.40;49.70
10538;DHT22;5317;49.048;8.468;2023-05-07T14:42:40;26.50;49.80
10538;DHT22;5317;49.048;8.468;2023-05-07T14:45:08;26.50;49.80
10538;DHT22;5317;49.048;8.468;2023-05-07T14:47:35;26.50;50.30
10538;DHT22;5317;49.048;8.468;2023-05-07T14:50:02;26.50;50.90
10538;DHT22;5317;49.048;8.468;2023-05-07T14:52:30;26.20;51.90
10538;DHT22;5317;49.048;8.468;2023-05-07T14:54:57;26.10;52.90
10538;DHT22;5317;49.048;8.468;2023-05-07T14:57:24;26.10;52.90
10538;DHT22;5317;49.048;8.468;2023-05-07T14:59:51;26.00;53.10
10538;DHT22;5317;49.048;8.468;2023-05-07T15:02:17;26.00;53.40
10538;DHT22;5317;49.048;8.468;2023-05-07T15:04:44;26.00;53.70
10538;DHT22;5317;49.048;8.468;2023-05-07T15:07:12;26.20;53.50
10538;DHT22;5317;49.048;8.468;2023-05-07T15:09:42;26.40;53.30
10538;DHT22;5317;49.048;8.468;2023-05-07T15:12:08;26.40;52.90
10538;DHT22;5317;49.048;8.468;2023-05-07T15:14:36;26.30;53.40
10538;DHT22;5317;49.048;8.468;2023-05-07T15:17:04;26.30;53.70
10538;DHT22;5317;49.048;8.468;2023-05-07T15:19:30;26.20;53.80
10538;DHT22;5317;49.048;8.468;2023-05-07T15:21:58;26.40;53.60
10538;DHT22;5317;49.048;8.468;2023-05-07T15:24:27;26.40;53.50
10538;DHT22;5317;49.048;8.468;2023-05-07T15:26:56;26.50;53.10
10538;DHT22;5317;49.048;8.468;2023-05-07T15:29:23;26.50;52.80
10538;DHT22;5317;49.048;8.468;2023-05-07T15:31:50;26.50;53.30
10538;DHT22;5317;49.048;8.468;2023-05-07T15:34:18;26.60;53.40
10538;DHT22;5317;49.048;8.468;2023-05-07T15:36:45;26.50;53.40
10538;DHT22;5317;49.048;8.468;2023-05-07T15:39:12;26.60;54.10
10538;DHT22;5317;49.048;8.468;2023-05-07T15:41:39;26.60;55.00
10538;DHT22;5317;49.048;8.468;2023-05-07T15:44:07;26.70;55.60
10538;DHT22;5317;49.048;8.468;2023-05-07T15:46:34;26.70;56.10
10538;DHT22;5317;49.048;8.468;2023-05-07T15:49:02;26.70;56.00
10538;DHT22;5317;49.048;8.468;2023-05-07T15:51:29;26.70;56.10
10538;DHT22;5317;49.048;8.468;2023-05-07T15:53:56;26.70;55.80
10538;DHT22;5317;49.048;8.468;2023-05-07T15:56:23;26.50;56.10